createdAt,value
2023-02-11T00:01:07.990Z,16.38
2023-02-11T00:03:53.247Z,14.43
2023-02-11T00:06:38.895Z,11.52
2023-02-11T00:09:24.270Z,14.05
2023-02-11T00:12:10.067Z,13.73
2023-02-11T00:14:55.718Z,14.52
2023-02-11T00:17:41.385Z,12.60
2023-02-11T00:20:26.688Z,15.25
2023-02-11T00:23:12.514Z,12.75
2023-02-11T00:25:58.030Z,17.60
2023-02-11T00:28:44.375Z,15.18
2023-02-11T00:31:29.855Z,11.77
2023-02-11T00:34:15.142Z,11.98
2023-02-11T00:37:00.510Z,12.02
2023-02-11T00:39:46.042Z,9.77
2023-02-11T00:42:31.624Z,13.35
2023-02-11T00:45:17.025Z,15.02
2023-02-11T00:48:02.350Z,12.00
2023-02-11T00:50:47.809Z,15.93
2023-02-11T00:53:33.980Z,14.43
2023-02-11T00:56:19.867Z,14.75
2023-02-11T00:59:04.980Z,14.98
2023-02-11T01:01:50.347Z,11.65
2023-02-11T01:04:35.975Z,19.55
2023-02-11T01:07:21.679Z,17.05
2023-02-11T01:10:07.184Z,14.52
2023-02-11T01:12:53.371Z,15.88
2023-02-11T01:15:38.858Z,19.63
2023-02-11T01:18:25.246Z,13.20
2023-02-11T01:21:11.017Z,12.88
2023-02-11T01:23:56.195Z,14.75
2023-02-11T01:26:41.481Z,14.85
2023-02-11T01:29:26.933Z,16.27
2023-02-11T01:32:13.160Z,19.27
2023-02-11T01:34:58.662Z,17.55
2023-02-11T01:37:43.910Z,14.88
2023-02-11T01:40:29.427Z,19.02
2023-02-11T01:43:14.751Z,17.73
2023-02-11T01:46:18.153Z,20.60
2023-02-11T01:49:18.449Z,17.33
2023-02-11T01:52:22.182Z,17.17
2023-02-11T01:55:31.073Z,19.05
2023-02-11T01:58:16.860Z,20.27
2023-02-11T02:01:05.352Z,19.15
2023-02-11T02:03:54.560Z,21.17
2023-02-11T02:06:49.005Z,16.85
2023-02-11T02:09:40.161Z,18.67
2023-02-11T02:12:25.443Z,16.25
2023-02-11T02:15:24.211Z,19.65
2023-02-11T02:18:37.471Z,16.33
2023-02-11T02:21:34.678Z,14.93
2023-02-11T02:24:36.727Z,23.17
2023-02-11T02:27:49.300Z,16.58
2023-02-11T02:31:06.749Z,20.45
2023-02-11T02:34:00.539Z,18.77
2023-02-11T02:37:08.993Z,17.88
2023-02-11T02:39:55.317Z,19.13
2023-02-11T02:42:41.939Z,17.45
2023-02-11T02:45:27.218Z,21.58
2023-02-11T02:48:31.197Z,17.80
2023-02-11T02:51:53.113Z,18.20
2023-02-11T02:55:05.960Z,22.00
2023-02-11T02:58:18.161Z,18.63
2023-02-11T03:01:48.338Z,17.02
2023-02-11T03:04:42.726Z,17.77
2023-02-11T03:07:58.644Z,21.90
2023-02-11T03:10:54.208Z,19.08
2023-02-11T03:13:40.499Z,18.40
2023-02-11T03:16:28.188Z,17.95
2023-02-11T03:19:19.113Z,22.40
2023-02-11T03:22:10.560Z,17.90
2023-02-11T03:24:56.743Z,19.75
2023-02-11T03:27:50.490Z,15.55
2023-02-11T03:30:48.077Z,18.85
2023-02-11T03:34:02.196Z,18.67
2023-02-11T03:37:02.779Z,23.10
2023-02-11T03:39:56.422Z,22.05
2023-02-11T03:42:50.899Z,21.60
2023-02-11T03:45:37.694Z,21.30
2023-02-11T03:48:33.826Z,23.70
2023-02-11T03:51:22.095Z,18.95
2023-02-11T03:54:13.942Z,20.02
2023-02-11T03:57:01.884Z,28.48
2023-02-11T03:59:57.222Z,21.98
2023-02-11T04:02:43.762Z,23.83
2023-02-11T04:05:29.578Z,22.35
2023-02-11T04:08:15.122Z,23.45
2023-02-11T04:11:00.535Z,19.00
2023-02-11T04:13:46.029Z,20.48
2023-02-11T04:16:31.554Z,22.02
2023-02-11T04:19:17.266Z,25.90
2023-02-11T04:22:02.989Z,27.83
2023-02-11T04:24:48.379Z,23.80
2023-02-11T04:27:34.210Z,20.70
2023-02-11T04:30:19.670Z,22.42
2023-02-11T04:33:05.146Z,23.42
2023-02-11T04:35:51.061Z,24.05
2023-02-11T04:38:36.965Z,22.23
2023-02-11T04:41:22.392Z,21.85
2023-02-11T04:44:07.979Z,26.05
2023-02-11T04:46:53.754Z,24.13
2023-02-11T04:49:38.975Z,28.00
2023-02-11T04:52:24.486Z,24.63
2023-02-11T04:55:09.988Z,21.65
2023-02-11T04:57:55.753Z,22.08
2023-02-11T05:00:40.868Z,22.10
2023-02-11T05:03:26.519Z,24.38
2023-02-11T05:06:12.398Z,29.55
2023-02-11T05:08:57.764Z,26.85
2023-02-11T05:11:43.282Z,25.30
2023-02-11T05:14:28.831Z,25.35
2023-02-11T05:17:14.205Z,22.13
2023-02-11T05:19:59.784Z,24.48
2023-02-11T05:22:45.056Z,26.55
2023-02-11T05:25:30.782Z,25.35
2023-02-11T05:28:16.079Z,24.95
2023-02-11T05:31:02.189Z,28.00
2023-02-11T05:33:47.966Z,26.48
2023-02-11T05:36:33.771Z,28.42
2023-02-11T05:39:19.013Z,27.92
2023-02-11T05:42:04.723Z,24.40
2023-02-11T05:44:50.785Z,26.45
2023-02-11T05:47:36.135Z,30.45
2023-02-11T05:50:21.673Z,26.30
2023-02-11T05:53:10.595Z,28.45
2023-02-11T05:55:56.280Z,27.52
2023-02-11T05:58:41.669Z,26.67
2023-02-11T06:01:27.912Z,25.50
2023-02-11T06:04:13.334Z,30.50
2023-02-11T06:06:58.595Z,24.88
2023-02-11T06:09:44.212Z,28.92
2023-02-11T06:12:29.496Z,27.10
2023-02-11T06:15:15.141Z,25.45
2023-02-11T06:18:00.565Z,25.75
2023-02-11T06:20:45.954Z,25.48
2023-02-11T06:23:31.569Z,23.40
2023-02-11T06:26:20.261Z,23.17
2023-02-11T06:29:05.661Z,23.98
2023-02-11T06:31:51.440Z,22.73
2023-02-11T06:34:37.082Z,25.90
2023-02-11T06:37:22.503Z,23.45
2023-02-11T06:40:07.875Z,25.63
2023-02-11T06:42:53.380Z,24.85
2023-02-11T06:45:38.998Z,23.55
2023-02-11T06:48:24.506Z,25.85
2023-02-11T06:51:12.969Z,24.27
2023-02-11T06:53:58.347Z,23.25
2023-02-11T06:56:43.654Z,23.00
2023-02-11T06:59:29.333Z,21.27
2023-02-11T07:02:14.587Z,21.33
2023-02-11T07:05:00.103Z,23.92
2023-02-11T07:07:45.789Z,24.08
2023-02-11T07:10:31.267Z,22.85
2023-02-11T07:13:16.977Z,23.65
2023-02-11T07:16:09.005Z,25.75
2023-02-11T07:18:54.290Z,22.30
2023-02-11T07:21:40.128Z,21.90
2023-02-11T07:24:25.814Z,24.98
2023-02-11T07:27:11.313Z,25.23
2023-02-11T07:29:56.672Z,24.35
2023-02-11T07:32:42.293Z,24.00
2023-02-11T07:35:27.630Z,22.25
2023-02-11T07:38:13.138Z,21.13
2023-02-11T07:41:07.669Z,23.52
2023-02-11T07:43:53.300Z,25.60
2023-02-11T07:46:42.898Z,22.02
2023-02-11T07:49:28.537Z,20.17
2023-02-11T07:52:13.668Z,23.52
2023-02-11T07:54:59.199Z,23.00
2023-02-11T07:57:45.341Z,21.05
2023-02-11T08:00:30.807Z,21.40
2023-02-11T08:03:16.223Z,18.67
2023-02-11T08:06:09.816Z,19.80
2023-02-11T08:08:55.480Z,19.85
2023-02-11T08:11:41.407Z,18.15
2023-02-11T08:14:27.197Z,16.65
2023-02-11T08:17:12.707Z,19.67
2023-02-11T08:19:58.140Z,18.63
2023-02-11T08:22:43.503Z,17.50
2023-02-11T08:25:28.974Z,17.13
2023-02-11T08:28:14.441Z,17.27
2023-02-11T08:31:12.090Z,19.02
2023-02-11T08:34:02.100Z,19.17
2023-02-11T08:36:48.420Z,19.88
2023-02-11T08:39:33.510Z,19.63
2023-02-11T08:42:19.086Z,18.63
2023-02-11T08:45:05.231Z,19.08
2023-02-11T08:47:50.960Z,19.60
2023-02-11T08:50:39.795Z,19.27
2023-02-11T08:53:25.181Z,17.67
2023-02-11T08:56:13.431Z,20.05
2023-02-11T08:58:58.896Z,17.50
2023-02-11T09:01:44.725Z,16.38
2023-02-11T09:04:30.027Z,15.55
2023-02-11T09:07:15.529Z,15.07
2023-02-11T09:10:01.078Z,14.00
2023-02-11T09:12:46.522Z,15.82
2023-02-11T09:15:32.182Z,15.18
2023-02-11T09:18:17.757Z,16.30
2023-02-11T09:21:08.096Z,14.43
2023-02-11T09:23:53.479Z,15.73
2023-02-11T09:26:43.393Z,14.00
2023-02-11T09:29:28.624Z,15.05
2023-02-11T09:32:14.224Z,12.85
2023-02-11T09:34:59.543Z,14.38
2023-02-11T09:37:45.083Z,14.25
2023-02-11T09:40:30.597Z,12.20
2023-02-11T09:43:26.896Z,13.75
2023-02-11T09:46:16.357Z,13.55
2023-02-11T09:49:03.706Z,12.70
2023-02-11T09:52:01.691Z,13.93
2023-02-11T09:54:58.497Z,14.77
2023-02-11T09:57:43.784Z,14.23
2023-02-11T10:00:36.394Z,18.67
2023-02-11T10:06:20.113Z,13.45
2023-02-11T10:09:20.360Z,12.05
2023-02-11T10:12:51.039Z,13.07
2023-02-11T10:15:51.344Z,12.20
2023-02-11T10:19:14.152Z,11.70
2023-02-11T10:22:04.921Z,18.05
2023-02-11T10:24:54.085Z,13.05
2023-02-11T10:27:39.084Z,15.45
2023-02-11T10:30:45.062Z,15.43
2023-02-11T10:33:41.472Z,11.73
2023-02-11T10:36:30.391Z,12.80
2023-02-11T10:39:21.891Z,12.02
2023-02-11T10:42:11.827Z,18.27
2023-02-11T10:45:02.017Z,12.40
2023-02-11T10:47:47.379Z,13.73
2023-02-11T10:50:35.009Z,12.07
2023-02-11T10:53:21.200Z,12.05
2023-02-11T10:56:10.523Z,14.13
2023-02-11T10:59:01.721Z,12.23
2023-02-11T11:01:50.933Z,11.13
2023-02-11T11:04:40.731Z,12.02
2023-02-11T11:07:28.967Z,13.65
2023-02-11T11:10:29.072Z,12.25
2023-02-11T11:13:24.890Z,13.00
2023-02-11T11:16:13.158Z,12.23
2023-02-11T11:19:08.078Z,17.25
2023-02-11T11:21:55.238Z,13.38
2023-02-11T11:24:46.711Z,14.82
2023-02-11T11:27:32.638Z,13.37
2023-02-11T11:30:18.988Z,16.48
2023-02-11T11:33:04.783Z,11.68
2023-02-11T11:36:04.173Z,11.32
2023-02-11T11:38:54.599Z,13.75
2023-02-11T11:41:54.135Z,14.35
2023-02-11T11:44:42.271Z,12.60
2023-02-11T11:47:35.810Z,11.90
2023-02-11T11:50:48.332Z,10.52
2023-02-11T11:53:45.731Z,11.88
2023-02-11T11:56:35.477Z,10.82
2023-02-11T11:59:22.029Z,9.32
2023-02-11T12:02:35.351Z,10.98
2023-02-11T12:05:27.860Z,10.60
2023-02-11T12:08:24.478Z,13.23
2023-02-11T12:11:26.121Z,12.63
2023-02-11T12:14:39.344Z,12.73
2023-02-11T12:17:46.266Z,10.63
2023-02-11T12:20:58.790Z,9.73
2023-02-11T12:24:17.507Z,11.43
2023-02-11T12:27:15.615Z,13.05
2023-02-11T12:30:28.865Z,10.57
2023-02-11T12:33:38.544Z,13.27
2023-02-11T12:36:43.777Z,10.75
2023-02-11T12:39:31.880Z,11.88
2023-02-11T12:42:42.002Z,12.25
2023-02-11T12:45:36.850Z,12.73
2023-02-11T12:48:45.960Z,11.38
2023-02-11T12:51:52.288Z,12.68
2023-02-11T12:54:54.497Z,11.57
2023-02-11T12:57:41.698Z,10.93
2023-02-11T13:00:38.651Z,9.70
2023-02-11T13:03:39.246Z,9.60
2023-02-11T13:06:43.466Z,9.90
2023-02-11T13:09:52.507Z,10.82
2023-02-11T13:12:57.475Z,10.43
2023-02-11T13:15:54.196Z,8.75
2023-02-11T13:19:03.776Z,8.63
2023-02-11T13:22:12.622Z,10.55
2023-02-11T13:25:15.383Z,10.60
2023-02-11T13:28:18.008Z,8.80
2023-02-11T13:31:07.765Z,9.52
2023-02-11T13:33:53.170Z,9.05
2023-02-11T13:36:38.703Z,13.63
2023-02-11T13:39:24.843Z,10.00
2023-02-11T13:42:16.295Z,8.52
2023-02-11T13:45:02.044Z,10.63
2023-02-11T13:47:52.402Z,8.18
2023-02-11T13:50:46.567Z,9.57
2023-02-11T13:53:46.692Z,7.15
2023-02-11T13:56:36.114Z,7.55
2023-02-11T13:59:27.587Z,10.45
2023-02-11T14:02:46.324Z,7.72
2023-02-11T14:05:51.189Z,9.05
2023-02-11T14:08:54.835Z,7.95
2023-02-11T14:11:40.931Z,9.18
2023-02-11T14:14:34.873Z,9.23
2023-02-11T14:17:28.573Z,8.43
2023-02-11T14:20:38.695Z,10.80
2023-02-11T14:23:27.371Z,9.43
2023-02-11T14:26:40.097Z,8.93
2023-02-11T14:29:39.349Z,9.40
2023-02-11T14:32:54.066Z,8.02
2023-02-11T14:36:05.442Z,10.05
2023-02-11T14:39:11.423Z,10.63
2023-02-11T14:41:56.986Z,7.60
2023-02-11T14:44:42.437Z,7.57
2023-02-11T14:47:35.612Z,8.07
2023-02-11T14:50:43.185Z,8.57
2023-02-11T14:53:30.747Z,7.97
2023-02-11T14:56:26.310Z,9.25
2023-02-11T14:59:21.138Z,6.65
2023-02-11T15:02:21.504Z,6.25
2023-02-11T15:05:22.436Z,9.73
2023-02-11T15:08:15.362Z,8.52
2023-02-11T15:11:03.458Z,7.97
2023-02-11T15:13:50.491Z,9.20
2023-02-11T15:16:41.978Z,9.20
2023-02-11T15:19:36.404Z,8.82
2023-02-11T15:22:28.050Z,8.88
2023-02-11T15:25:17.304Z,12.27
2023-02-11T15:28:21.323Z,8.93
2023-02-11T15:31:15.834Z,11.65
2023-02-11T15:34:08.431Z,8.40
2023-02-11T15:36:53.847Z,7.00
2023-02-11T15:39:41.057Z,6.78
2023-02-11T15:42:40.780Z,7.07
2023-02-11T15:45:43.616Z,6.85
2023-02-11T15:48:38.426Z,7.90
2023-02-11T15:51:32.914Z,8.35
2023-02-11T15:54:26.589Z,7.00
2023-02-11T15:57:12.174Z,7.43
2023-02-11T15:59:59.020Z,8.52
2023-02-11T16:02:46.367Z,8.07
2023-02-11T16:05:37.453Z,9.25
2023-02-11T16:08:26.373Z,8.52
2023-02-11T16:11:33.652Z,7.20
2023-02-11T16:14:29.826Z,8.30
2023-02-11T16:17:18.376Z,8.02
2023-02-11T16:20:04.002Z,8.00
2023-02-11T16:22:49.049Z,7.93
2023-02-11T16:25:37.878Z,6.95
2023-02-11T16:28:23.279Z,8.68
2023-02-11T16:31:09.571Z,9.63
2023-02-11T16:33:54.978Z,10.35
2023-02-11T16:36:40.501Z,8.43
2023-02-11T16:39:25.666Z,8.35
2023-02-11T16:42:14.106Z,9.35
2023-02-11T16:45:00.190Z,6.78
2023-02-11T16:47:46.181Z,8.30
2023-02-11T16:50:31.654Z,8.73
2023-02-11T16:53:21.498Z,9.35
2023-02-11T16:56:07.083Z,11.40
2023-02-11T16:58:52.729Z,11.45
2023-02-11T17:01:40.065Z,9.50
2023-02-11T17:04:30.045Z,11.00
2023-02-11T17:07:15.599Z,8.38
2023-02-11T17:10:01.238Z,11.30
2023-02-11T17:12:47.954Z,10.57
2023-02-11T17:15:33.293Z,8.13
2023-02-11T17:18:18.737Z,9.48
2023-02-11T17:21:07.033Z,10.85
2023-02-11T17:23:53.014Z,8.48
2023-02-11T17:26:39.099Z,11.18
2023-02-11T17:29:26.260Z,7.53
2023-02-11T17:32:11.939Z,6.57
2023-02-11T17:34:57.247Z,9.35
2023-02-11T17:37:42.903Z,9.57
2023-02-11T17:40:27.902Z,8.40
2023-02-11T17:43:13.463Z,8.43
2023-02-11T17:45:58.558Z,13.00
2023-02-11T17:48:44.281Z,7.97
2023-02-11T17:51:35.337Z,8.80
2023-02-11T17:54:20.919Z,8.75
2023-02-11T17:57:06.286Z,10.30
2023-02-11T17:59:51.731Z,7.97
2023-02-11T18:02:36.904Z,9.20
2023-02-11T18:05:24.132Z,9.35
2023-02-11T18:08:09.667Z,8.70
2023-02-11T18:10:55.673Z,8.80
2023-02-11T18:13:41.506Z,11.25
2023-02-11T18:16:28.948Z,8.95
2023-02-11T18:19:14.357Z,8.43
2023-02-11T18:22:01.080Z,8.35
2023-02-11T18:24:54.441Z,7.70
2023-02-11T18:27:40.243Z,7.75
2023-02-11T18:30:25.741Z,9.02
2023-02-11T18:33:14.183Z,8.93
2023-02-11T18:35:59.314Z,7.88
2023-02-11T18:38:44.921Z,7.80
2023-02-11T18:41:30.734Z,9.02
2023-02-11T18:44:22.077Z,7.90
2023-02-11T18:47:07.438Z,8.82
2023-02-11T18:49:52.862Z,8.23
2023-02-11T18:52:38.422Z,9.13
2023-02-11T18:55:25.880Z,11.38
2023-02-11T18:58:11.662Z,11.27
2023-02-11T19:00:56.998Z,8.43
2023-02-11T19:03:43.121Z,8.65
2023-02-11T19:06:30.860Z,8.77
2023-02-11T19:09:19.415Z,9.48
2023-02-11T19:12:07.149Z,8.40
2023-02-11T19:14:52.318Z,11.23
2023-02-11T19:17:37.905Z,12.50
2023-02-11T19:20:23.354Z,10.48
2023-02-11T19:23:10.103Z,11.98
2023-02-11T19:25:55.206Z,10.88
2023-02-11T19:28:40.780Z,10.73
2023-02-11T19:31:26.354Z,11.63
2023-02-11T19:34:14.125Z,10.43
2023-02-11T19:37:01.486Z,8.75
2023-02-11T19:39:46.762Z,8.00
2023-02-11T19:42:32.096Z,10.15
2023-02-11T19:45:17.776Z,9.07
2023-02-11T19:48:03.210Z,10.88
2023-02-11T19:50:48.746Z,9.57
2023-02-11T19:53:33.695Z,10.20
2023-02-11T19:56:20.913Z,9.60
2023-02-11T19:59:08.862Z,10.95
2023-02-11T20:01:54.406Z,8.65
2023-02-11T20:04:39.942Z,11.65
2023-02-11T20:07:25.179Z,8.82
2023-02-11T20:10:10.631Z,11.23
2023-02-11T20:12:56.351Z,9.35
2023-02-11T20:15:41.635Z,8.35
2023-02-11T20:18:26.937Z,8.85
2023-02-11T20:21:17.921Z,8.43
2023-02-11T20:24:03.612Z,9.05
2023-02-11T20:26:49.204Z,9.07
2023-02-11T20:29:34.721Z,9.05
2023-02-11T20:32:20.075Z,7.45
2023-02-11T20:35:07.945Z,9.40
2023-02-11T20:37:53.127Z,7.43
2023-02-11T20:40:38.650Z,9.77
2023-02-11T20:43:23.924Z,8.48
2023-02-11T20:46:09.454Z,10.25
2023-02-11T20:48:56.296Z,8.93
2023-02-11T20:51:42.263Z,7.40
2023-02-11T20:54:27.343Z,9.30
2023-02-11T20:57:12.861Z,6.68
2023-02-11T20:59:58.297Z,7.97
2023-02-11T21:02:43.941Z,8.18
2023-02-11T21:05:29.714Z,6.32
2023-02-11T21:08:14.943Z,6.40
2023-02-11T21:11:01.781Z,7.50
2023-02-11T21:13:46.929Z,5.60
2023-02-11T21:16:32.948Z,6.03
2023-02-11T21:19:18.971Z,5.70
2023-02-11T21:22:04.490Z,6.60
2023-02-11T21:24:50.051Z,7.47
2023-02-11T21:27:35.564Z,6.20
2023-02-11T21:30:21.092Z,6.28
2023-02-11T21:33:06.592Z,6.05
2023-02-11T21:35:57.137Z,6.80
2023-02-11T21:38:43.081Z,6.88
2023-02-11T21:41:28.515Z,7.40
2023-02-11T21:44:13.924Z,6.97
2023-02-11T21:46:59.789Z,7.88
2023-02-11T21:49:45.242Z,7.78
2023-02-11T21:52:30.583Z,7.82
2023-02-11T21:55:16.397Z,6.55
2023-02-11T21:58:01.426Z,6.97
2023-02-11T22:00:46.784Z,7.00
2023-02-11T22:03:32.355Z,8.07
2023-02-11T22:06:21.375Z,8.45
2023-02-11T22:09:08.584Z,7.68
2023-02-11T22:11:54.173Z,8.02
2023-02-11T22:14:39.421Z,7.50
2023-02-11T22:17:25.180Z,7.40
2023-02-11T22:20:11.761Z,7.75
2023-02-11T22:22:58.427Z,7.70
2023-02-11T22:25:43.890Z,8.70
2023-02-11T22:28:29.926Z,8.38
2023-02-11T22:31:28.587Z,9.55
2023-02-11T22:34:13.891Z,8.40
2023-02-11T22:36:59.365Z,8.20
2023-02-11T22:39:44.879Z,8.20
2023-02-11T22:42:30.218Z,8.45
2023-02-11T22:45:15.682Z,8.35
2023-02-11T22:48:01.242Z,10.93
2023-02-11T22:50:46.534Z,10.45
2023-02-11T22:53:32.110Z,7.57
2023-02-11T22:56:17.260Z,9.27
2023-02-11T22:59:06.356Z,6.85
2023-02-11T23:01:51.816Z,9.07
2023-02-11T23:04:37.174Z,7.38
2023-02-11T23:07:22.579Z,7.60
2023-02-11T23:10:08.719Z,8.25
2023-02-11T23:12:53.985Z,9.52
2023-02-11T23:15:41.531Z,9.20
2023-02-11T23:18:26.569Z,8.68
2023-02-11T23:21:18.277Z,7.88
2023-02-11T23:24:14.917Z,9.70
2023-02-11T23:27:00.178Z,11.75
2023-02-11T23:29:45.665Z,9.25
2023-02-11T23:32:31.214Z,8.73
2023-02-11T23:35:22.063Z,9.20
2023-02-11T23:38:07.523Z,10.55
2023-02-11T23:40:52.814Z,10.32
2023-02-11T23:43:38.557Z,10.07
2023-02-11T23:46:25.800Z,9.70
2023-02-11T23:49:11.352Z,9.30
2023-02-11T23:51:56.977Z,8.55
2023-02-11T23:54:43.392Z,7.32
2023-02-11T23:57:28.877Z,8.00
